Time;durP1;ratioP1;P1;durP2;ratioP2;P2;SDS_P1;SDS_P2;PMS_P1;PMS_P2;Temp;Humidity;BMP_temperature;BMP_pressure;BME280_temperature;BME280_humidity;BME280_pressure;Samples;Min_cycle;Max_cycle;Signal;HPM_P1;HPM_P2
2021/11/19 00:02:25;;;;;;;50.08;8.32;;;;;;;11.59;100.00;100696.22;5015735;28;20030;-78
2021/11/19 00:04:51;;;;;;;44.65;6.80;;;;;;;11.58;100.00;100689.19;5016502;28;20112;-78
2021/11/19 00:07:18;;;;;;;49.88;7.05;;;;;;;11.57;100.00;100682.97;5022317;28;20034;-78
2021/11/19 00:09:44;;;;;;;42.35;6.22;;;;;;;11.55;100.00;100695.81;5020551;28;20104;-78
2021/11/19 00:12:10;;;;;;;44.45;6.47;;;;;;;11.54;100.00;100691.47;5015634;28;20367;-78
2021/11/19 00:14:36;;;;;;;48.25;7.57;;;;;;;11.55;100.00;100681.50;5016980;28;20048;-78
2021/11/19 00:17:05;;;;;;;43.53;6.35;;;;;;;11.53;100.00;100677.16;5016746;28;20025;-78
2021/11/19 00:19:36;;;;;;;48.33;7.47;;;;;;;11.58;100.00;100673.00;5015509;28;20025;-78
2021/11/19 00:22:02;;;;;;;47.00;6.80;;;;;;;11.49;100.00;100675.94;5010974;28;20125;-78
2021/11/19 00:24:28;;;;;;;30.05;4.57;;;;;;;11.52;100.00;100683.59;4997762;28;20131;-78
2021/11/19 00:26:54;;;;;;;39.10;6.30;;;;;;;11.55;100.00;100674.25;4998310;28;20066;-78
2021/11/19 00:29:20;;;;;;;33.22;5.00;;;;;;;11.52;100.00;100659.34;5001592;28;20455;-78
2021/11/19 00:31:47;;;;;;;43.88;6.03;;;;;;;11.61;100.00;100681.50;5015540;28;20411;-78
2021/11/19 00:34:14;;;;;;;45.72;7.03;;;;;;;11.62;100.00;100680.47;5015191;28;20029;-78
2021/11/19 00:36:40;;;;;;;44.13;7.22;;;;;;;11.65;100.00;100674.66;5017599;28;20014;-78
2021/11/19 00:39:10;;;;;;;45.15;6.63;;;;;;;11.64;100.00;100678.38;5017438;28;20037;-78
2021/11/19 00:41:37;;;;;;;43.00;7.28;;;;;;;11.64;100.00;100664.09;5011737;28;20107;-78
2021/11/19 00:44:04;;;;;;;40.90;6.03;;;;;;;11.58;100.00;100659.53;5016813;28;20038;-78
2021/11/19 00:46:32;;;;;;;44.60;6.75;;;;;;;11.52;100.00;100653.09;5016363;28;20113;-78
2021/11/19 00:48:59;;;;;;;45.95;7.47;;;;;;;11.52;100.00;100647.72;5017468;28;20021;-78
2021/11/19 00:51:29;;;;;;;43.25;6.85;;;;;;;11.59;100.00;100670.13;5013446;28;20077;-78
2021/11/19 00:53:58;;;;;;;41.30;6.43;;;;;;;11.56;100.00;100665.16;5016131;28;20344;-78
2021/11/19 00:56:27;;;;;;;43.38;6.13;;;;;;;11.51;100.00;100640.69;5013383;28;20375;-77
2021/11/19 00:58:54;;;;;;;48.13;6.68;;;;;;;11.64;100.00;100661.41;5021844;28;20021;-78
2021/11/19 01:01:30;;;;;;;41.53;6.07;;;;;;;11.59;100.00;100650.41;5024363;28;20045;-78
2021/11/19 01:03:57;;;;;;;40.40;5.75;;;;;;;11.60;100.00;100655.59;5017203;28;20050;-78
2021/11/19 01:06:22;;;;;;;33.10;4.72;;;;;;;11.64;100.00;100635.28;5012110;28;20069;-78
2021/11/19 01:08:49;;;;;;;30.10;4.43;;;;;;;11.70;100.00;100628.22;4995025;28;20023;-77
2021/11/19 01:11:18;;;;;;;27.17;4.40;;;;;;;11.74;100.00;100619.50;5019081;28;20125;-78
2021/11/19 01:13:47;;;;;;;24.98;3.95;;;;;;;11.73;100.00;100588.19;5015012;28;20025;-78
2021/11/19 01:16:19;;;;;;;14.07;3.30;;;;;;;11.77;100.00;100594.81;5015077;28;20387;-78
2021/11/19 01:18:52;;;;;;;22.92;3.30;;;;;;;11.76;100.00;100581.56;5016307;28;20033;-78
2021/11/19 01:21:30;;;;;;;15.90;2.83;;;;;;;11.84;100.00;100580.47;5016907;28;20026;-78
2021/11/19 01:23:58;;;;;;;18.90;2.53;;;;;;;11.72;100.00;100577.59;5012846;28;20121;-78
2021/11/19 01:26:32;;;;;;;27.02;4.22;;;;;;;11.85;100.00;100596.47;5014665;28;20025;-77
2021/11/19 01:29:01;;;;;;;22.15;3.33;;;;;;;11.82;100.00;100579.84;5015327;28;20414;-78
2021/11/19 01:31:37;;;;;;;22.17;3.40;;;;;;;11.73;100.00;100584.66;5014987;28;20121;-77
2021/11/19 01:34:03;;;;;;;15.32;2.53;;;;;;;11.80;100.00;100598.94;5015447;28;20095;-78
2021/11/19 01:36:31;;;;;;;19.20;3.17;;;;;;;11.72;100.00;100605.41;5013745;28;20025;-77
2021/11/19 01:38:58;;;;;;;17.83;2.70;;;;;;;11.75;100.00;100602.28;5014295;28;20034;-78
2021/11/19 01:41:30;;;;;;;17.90;3.17;;;;;;;11.69;100.00;100594.22;5015584;28;20026;-78
2021/11/19 01:43:55;;;;;;;25.45;3.90;;;;;;;11.74;100.00;100619.50;5016881;28;20379;-78
2021/11/19 01:46:25;;;;;;;27.70;3.40;;;;;;;11.73;100.00;100612.44;5020283;28;20036;-78
2021/11/19 01:48:53;;;;;;;22.73;3.38;;;;;;;11.68;100.00;100614.94;5014266;28;20025;-78
2021/11/19 01:51:43;;;;;;;11.02;1.92;;;;;;;11.70;100.00;100612.88;5014770;28;20456;-78
2021/11/19 01:54:29;;;;;;;26.42;3.55;;;;;;;11.71;100.00;100609.13;5013983;28;20042;-78
2021/11/19 01:57:09;;;;;;;18.42;2.72;;;;;;;11.55;100.00;100582.63;5015800;28;20021;-78
2021/11/19 01:59:45;;;;;;;22.23;3.30;;;;;;;11.69;100.00;100605.00;5013646;28;20036;-78
2021/11/19 02:02:17;;;;;;;22.90;3.53;;;;;;;11.65;100.00;100593.78;5013065;28;20033;-78
2021/11/19 02:04:53;;;;;;;21.38;2.70;;;;;;;11.59;100.00;100591.97;5015221;28;20049;-78
2021/11/19 02:07:26;;;;;;;22.25;3.95;;;;;;;11.63;100.00;100601.28;5015686;28;20030;-78
2021/11/19 02:10:18;;;;;;;25.42;2.90;;;;;;;11.69;100.00;100611.22;5013621;28;20036;-78
2021/11/19 02:13:01;;;;;;;18.95;2.55;;;;;;;11.69;100.00;100622.00;4964980;28;20034;-78
2021/11/19 02:15:32;;;;;;;28.40;3.67;;;;;;;11.69;100.00;100619.31;4994298;28;20026;-78
2021/11/19 02:18:02;;;;;;;27.33;3.38;;;;;;;11.70;100.00;100614.75;4996253;28;20026;-78
2021/11/19 02:20:34;;;;;;;27.60;4.00;;;;;;;11.72;100.00;100621.59;5005004;28;20040;-79
2021/11/19 02:23:14;;;;;;;42.33;4.93;;;;;;;11.76;100.00;100627.38;5015543;28;20029;-78
2021/11/19 02:25:45;;;;;;;22.73;3.03;;;;;;;11.72;100.00;100607.25;5013404;28;20108;-78
2021/11/19 02:28:16;;;;;;;24.80;3.80;;;;;;;11.76;100.00;100611.22;5019748;28;20029;-78
2021/11/19 02:31:00;;;;;;;29.40;3.97;;;;;;;11.76;100.00;100609.34;5015030;28;20131;-78
2021/11/19 02:33:29;;;;;;;34.40;4.13;;;;;;;11.74;100.00;100592.53;5014254;28;20026;-78
2021/11/19 02:36:05;;;;;;;24.73;3.15;;;;;;;11.79;100.00;100596.44;5013523;28;20113;-78
2021/11/19 02:38:38;;;;;;;27.42;3.58;;;;;;;11.83;100.00;100600.41;5013627;28;20018;-78
2021/11/19 02:41:06;;;;;;;21.52;3.17;;;;;;;11.84;100.00;100599.34;5011760;28;20087;-79
2021/11/19 02:43:42;;;;;;;27.98;3.78;;;;;;;11.79;100.00;100585.66;5013778;28;20128;-78
2021/11/19 02:46:20;;;;;;;22.08;3.58;;;;;;;11.82;100.00;100586.09;5012766;28;20017;-78
2021/11/19 02:48:46;;;;;;;19.55;2.88;;;;;;;11.80;100.00;100547.72;5014748;28;20033;-78
2021/11/19 02:51:13;;;;;;;25.05;4.22;;;;;;;11.83;100.00;100563.47;5013054;28;20371;-78
2021/11/19 02:53:40;;;;;;;31.25;4.00;;;;;;;11.91;100.00;100573.22;5015462;28;20168;-79
2021/11/19 02:56:06;;;;;;;21.83;3.22;;;;;;;11.90;100.00;100568.88;5016054;28;20352;-78
2021/11/19 02:58:35;;;;;;;27.38;4.57;;;;;;;11.57;100.00;100505.09;5014200;28;20028;-79
2021/11/19 03:01:20;;;;;;;32.10;4.63;;;;;;;11.87;100.00;100547.72;5012134;28;20089;-78
2021/11/19 03:03:51;;;;;;;32.13;4.53;;;;;;;11.95;100.00;100560.97;5014304;28;20053;-78
2021/11/19 03:06:16;;;;;;;28.10;4.32;;;;;;;12.00;100.00;100553.06;5011599;28;20080;-78
2021/11/19 03:08:43;;;;;;;35.38;4.82;;;;;;;11.94;100.00;100554.75;5028202;28;20106;-78
2021/11/19 03:11:12;;;;;;;30.02;4.72;;;;;;;11.95;100.00;100556.41;5013251;28;20049;-78
2021/11/19 03:13:38;;;;;;;29.70;4.38;;;;;;;11.79;100.00;100524.53;5013013;28;20498;-78
2021/11/19 03:16:05;;;;;;;32.75;5.00;;;;;;;11.97;100.00;100573.19;5015810;28;20030;-78
2021/11/19 03:18:31;;;;;;;41.53;5.78;;;;;;;11.92;100.00;100556.84;5014230;28;20036;-78
2021/11/19 03:21:00;;;;;;;42.15;5.30;;;;;;;11.95;100.00;100560.97;5013742;28;20049;-79
2021/11/19 03:23:28;;;;;;;34.88;5.22;;;;;;;11.98;100.00;100541.66;5012262;28;20030;-78
2021/11/19 03:25:55;;;;;;;33.90;4.85;;;;;;;12.00;100.00;100542.28;5013833;28;20026;-78
2021/11/19 03:28:23;;;;;;;32.15;4.80;;;;;;;11.94;100.00;100543.13;5014360;28;20105;-78
2021/11/19 03:30:52;;;;;;;38.78;5.07;;;;;;;11.98;100.00;100549.75;5012350;28;20041;-78
2021/11/19 03:33:22;;;;;;;33.60;5.82;;;;;;;12.01;100.00;100530.44;5013577;28;20018;-78
2021/11/19 03:35:49;;;;;;;29.92;5.30;;;;;;;12.04;100.00;100521.09;5012296;28;20096;-78
2021/11/19 03:38:14;;;;;;;26.27;5.22;;;;;;;11.88;100.00;100500.84;5012948;28;20446;-78
2021/11/19 03:40:43;;;;;;;33.22;5.35;;;;;;;12.02;100.00;100518.63;5018816;28;20074;-78
2021/11/19 03:43:12;;;;;;;44.20;6.15;;;;;;;12.08;100.00;100519.63;5013112;28;20026;-79
2021/11/19 03:45:44;;;;;;;42.50;6.28;;;;;;;12.03;100.00;100508.66;5013187;28;20042;-78
2021/11/19 03:48:10;;;;;;;35.47;5.63;;;;;;;12.11;100.00;100520.00;5012449;28;20022;-78
2021/11/19 03:50:42;;;;;;;38.22;5.90;;;;;;;11.98;100.00;100514.69;5012476;28;20426;-78
2021/11/19 03:53:09;;;;;;;30.17;5.10;;;;;;;12.12;100.00;100535.19;5012953;28;20108;-78
2021/11/19 03:55:39;;;;;;;32.25;4.82;;;;;;;12.10;100.00;100531.03;5014758;28;20037;-78
2021/11/19 03:58:05;;;;;;;42.35;6.15;;;;;;;12.09;100.00;100508.63;5013242;28;20091;-78
2021/11/19 04:00:38;;;;;;;33.40;5.38;;;;;;;12.15;100.00;100517.72;5012847;28;20030;-78
2021/11/19 04:03:05;;;;;;;35.40;5.78;;;;;;;12.11;100.00;100500.31;5012427;28;20068;-78
2021/11/19 04:05:32;;;;;;;38.38;5.95;;;;;;;12.06;100.00;100498.28;5018097;28;20057;-78
2021/11/19 04:07:57;;;;;;;50.58;7.13;;;;;;;12.12;100.00;100516.28;5014549;28;20037;-78
2021/11/19 04:10:23;;;;;;;36.45;5.82;;;;;;;12.00;100.00;100499.13;5014578;28;20571;-77
2021/11/19 04:12:50;;;;;;;48.72;7.78;;;;;;;12.14;100.00;100511.50;5013374;28;20172;-78
2021/11/19 04:15:20;;;;;;;37.80;5.68;;;;;;;12.14;100.00;100514.19;5011455;28;20240;-78
2021/11/19 04:17:46;;;;;;;44.10;6.45;;;;;;;12.13;100.00;100503.63;5012777;28;20075;-78
2021/11/19 04:20:14;;;;;;;39.40;6.05;;;;;;;12.11;100.00;100489.53;5013481;28;20116;-78
2021/11/19 04:22:40;;;;;;;36.58;6.72;;;;;;;12.08;100.00;100485.38;5011458;28;20026;-78
2021/11/19 04:25:07;;;;;;;46.13;7.90;;;;;;;12.17;100.00;100489.47;4996320;28;20494;-78
2021/11/19 04:27:35;;;;;;;38.80;6.63;;;;;;;12.12;100.00;100467.75;5009688;28;20045;-78
2021/11/19 04:30:01;;;;;;;40.95;6.50;;;;;;;12.17;100.00;100470.59;5012102;28;20105;-78
2021/11/19 04:32:27;;;;;;;43.53;6.93;;;;;;;12.20;100.00;100469.34;5010387;28;20367;-78
2021/11/19 04:34:54;;;;;;;54.47;7.50;;;;;;;11.84;100.00;100424.97;5012367;28;20037;-78
2021/11/19 04:37:21;;;;;;;49.75;6.55;;;;;;;12.08;100.00;100461.13;5012637;28;20077;-78
2021/11/19 04:39:47;;;;;;;45.58;7.13;;;;;;;12.11;100.00;100457.16;5012389;28;20022;-78
2021/11/19 04:42:13;;;;;;;40.40;5.65;;;;;;;12.14;100.00;100478.31;5010791;28;20470;-78
2021/11/19 04:44:40;;;;;;;33.67;5.13;;;;;;;12.10;100.00;100480.63;5016995;28;20029;-78
2021/11/19 04:47:05;;;;;;;43.90;6.78;;;;;;;12.17;100.00;100483.28;5016015;28;20088;-78
2021/11/19 04:49:32;;;;;;;45.67;6.90;;;;;;;12.13;100.00;100490.97;5017021;28;20371;-78
2021/11/19 04:51:58;;;;;;;47.72;7.53;;;;;;;12.17;100.00;100500.28;5017002;28;20035;-78
2021/11/19 04:54:24;;;;;;;44.40;6.88;;;;;;;12.17;100.00;100488.66;5017579;28;20060;-78
2021/11/19 04:56:52;;;;;;;49.63;7.25;;;;;;;12.17;100.00;100489.47;5022755;28;20041;-79
2021/11/19 04:59:19;;;;;;;31.58;4.70;;;;;;;12.15;100.00;100496.97;5014231;28;20026;-78
2021/11/19 05:01:48;;;;;;;48.67;6.95;;;;;;;12.17;100.00;100489.47;5015608;28;20034;-78
2021/11/19 05:04:15;;;;;;;33.08;4.80;;;;;;;12.19;100.00;100503.59;5013609;28;20066;-77
2021/11/19 05:06:40;;;;;;;34.17;5.85;;;;;;;12.18;100.00;100491.13;5017506;28;20072;-79
2021/11/19 05:09:08;;;;;;;53.80;7.90;;;;;;;12.20;100.00;100505.25;5016061;28;20065;-77
2021/11/19 05:11:41;;;;;;;53.45;7.60;;;;;;;12.02;100.00;100471.94;5016019;28;20525;-79
2021/11/19 05:14:07;;;;;;;42.30;6.93;;;;;;;12.18;100.00;100487.59;5015446;28;20033;-79
2021/11/19 05:16:33;;;;;;;53.92;7.70;;;;;;;12.29;100.00;100507.69;5022706;28;20359;-78
2021/11/19 05:18:59;;;;;;;50.92;8.00;;;;;;;12.20;100.00;100510.63;5014343;28;20072;-78
2021/11/19 05:21:25;;;;;;;48.00;6.70;;;;;;;12.18;100.00;100501.91;5013771;28;20033;-78
2021/11/19 05:23:51;;;;;;;50.60;7.55;;;;;;;12.25;100.00;100515.41;5015093;28;20360;-78
2021/11/19 05:26:16;;;;;;;61.53;8.65;;;;;;;12.33;100.00;100525.91;5013290;28;20113;-78
2021/11/19 05:28:42;;;;;;;50.50;7.97;;;;;;;12.32;100.00;100512.66;4994450;28;20034;-79
2021/11/19 05:31:09;;;;;;;56.78;8.13;;;;;;;12.35;100.00;100536.47;5003182;28;20029;-78
2021/11/19 05:33:36;;;;;;;57.47;8.18;;;;;;;12.32;100.00;100521.56;5016650;28;20026;-78
2021/11/19 05:36:03;;;;;;;39.90;6.72;;;;;;;12.38;100.00;100536.03;5013656;28;20069;-79
2021/11/19 05:38:29;;;;;;;51.08;7.50;;;;;;;12.36;100.00;100536.28;5015916;28;20087;-78
2021/11/19 05:40:55;;;;;;;74.43;8.85;;;;;;;12.42;100.00;100532.72;5013961;28;20038;-78
2021/11/19 05:43:23;;;;;;;48.35;7.57;;;;;;;12.27;100.00;100504.38;5013639;28;20516;-78
2021/11/19 05:45:48;;;;;;;54.83;8.77;;;;;;;12.43;100.00;100517.34;5015660;28;20394;-78
2021/11/19 05:48:14;;;;;;;48.08;7.75;;;;;;;12.29;100.00;100486.09;5012568;28;20022;-78
2021/11/19 05:50:42;;;;;;;64.80;9.40;;;;;;;12.48;100.00;100509.41;5009224;28;20444;-78
2021/11/19 05:53:09;;;;;;;47.47;7.50;;;;;;;12.45;100.00;100510.69;5005043;28;20053;-78
2021/11/19 05:55:37;;;;;;;58.72;9.20;;;;;;;12.49;100.00;100511.06;5002366;28;20033;-79
2021/11/19 05:58:04;;;;;;;59.92;9.68;;;;;;;12.47;100.00;100499.66;5002933;28;20038;-78
2021/11/19 06:00:38;;;;;;;55.70;9.32;;;;;;;12.48;100.00;100490.50;5003400;28;20030;-78
2021/11/19 06:03:03;;;;;;;53.47;8.40;;;;;;;12.32;100.00;100454.13;5003285;28;20057;-77
2021/11/19 06:05:32;;;;;;;54.88;8.07;;;;;;;12.44;100.00;100492.81;5005975;28;20490;-78
2021/11/19 06:07:58;;;;;;;41.97;7.72;;;;;;;12.46;100.00;100489.91;5003678;28;20037;-79
2021/11/19 06:10:28;;;;;;;56.20;9.52;;;;;;;12.44;100.00;100475.81;5004108;28;20037;-78
2021/11/19 06:12:58;;;;;;;50.97;9.23;;;;;;;12.43;100.00;100466.88;5003377;28;20052;-77
2021/11/19 06:15:28;;;;;;;52.88;8.50;;;;;;;12.43;100.00;100464.19;5009596;28;20109;-78
2021/11/19 06:18:02;;;;;;;43.95;8.50;;;;;;;12.41;100.00;100473.53;5004940;28;20076;-77
2021/11/19 06:20:35;;;;;;;55.78;9.77;;;;;;;12.45;100.00;100470.22;4989313;28;20041;-78
2021/11/19 06:23:09;;;;;;;57.17;8.68;;;;;;;12.44;100.00;100473.94;5002057;28;20033;-78
2021/11/19 06:25:37;;;;;;;47.35;8.70;;;;;;;12.35;100.00;100456.38;5008680;28;20044;-78
2021/11/19 06:28:05;;;;;;;65.45;9.82;;;;;;;12.42;100.00;100467.94;5004093;28;20570;-78
2021/11/19 06:30:32;;;;;;;47.80;7.80;;;;;;;12.46;100.00;100481.81;5004384;28;20036;-78
2021/11/19 06:32:58;;;;;;;60.92;9.63;;;;;;;12.42;100.00;100477.91;4987275;28;20037;-78
2021/11/19 06:35:24;;;;;;;50.97;8.35;;;;;;;12.45;100.00;100494.50;5003754;28;20108;-80
2021/11/19 06:37:52;;;;;;;57.30;7.47;;;;;;;12.48;100.00;100492.38;5009082;28;20053;-78
2021/11/19 06:40:25;;;;;;;50.53;8.88;;;;;;;12.45;100.00;100490.97;5004488;28;20133;-78
2021/11/19 06:42:53;;;;;;;45.07;8.27;;;;;;;12.47;100.00;100491.56;5003820;28;20033;-78
2021/11/19 06:45:18;;;;;;;49.08;8.40;;;;;;;12.48;100.00;100506.69;5003647;28;20088;-78
2021/11/19 06:47:45;;;;;;;59.55;9.68;;;;;;;12.45;100.00;100509.88;5007018;28;20026;-79
2021/11/19 06:50:14;;;;;;;64.03;9.80;;;;;;;12.43;100.00;100487.66;5004032;28;20025;-79
2021/11/19 06:52:41;;;;;;;42.78;7.47;;;;;;;12.34;100.00;100483.56;5004696;28;20061;-79
2021/11/19 06:55:08;;;;;;;60.10;9.60;;;;;;;12.39;100.00;100470.25;5000808;28;20702;-79
2021/11/19 06:57:35;;;;;;;45.15;7.10;;;;;;;12.41;100.00;100492.44;5003940;28;20026;-78
2021/11/19 07:00:00;;;;;;;43.88;7.85;;;;;;;12.43;100.00;100495.75;5006511;28;20056;-79
2021/11/19 07:02:27;;;;;;;46.42;7.75;;;;;;;12.43;100.00;100485.78;5004082;28;20399;-79
2021/11/19 07:04:53;;;;;;;62.25;8.82;;;;;;;12.37;100.00;100499.31;4986255;28;20060;-79
2021/11/19 07:07:18;;;;;;;60.80;9.10;;;;;;;12.37;100.00;100480.44;4986248;28;20034;-78
2021/11/19 07:09:45;;;;;;;62.83;9.63;;;;;;;12.32;100.00;100475.72;5002304;28;20045;-78
2021/11/19 07:12:12;;;;;;;64.03;9.77;;;;;;;12.31;100.00;100497.50;5012293;28;20057;-78
2021/11/19 07:14:39;;;;;;;53.90;8.88;;;;;;;12.36;100.00;100503.91;5009973;28;20080;-78
2021/11/19 07:17:07;;;;;;;44.13;8.13;;;;;;;12.37;100.00;100504.72;5005205;28;20026;-78
2021/11/19 07:19:35;;;;;;;67.97;8.98;;;;;;;12.05;100.00;100458.84;5004511;28;20026;-79
2021/11/19 07:22:01;;;;;;;62.20;9.90;;;;;;;12.37;100.00;100488.53;5012937;28;20046;-78
2021/11/19 07:24:27;;;;;;;63.35;9.13;;;;;;;12.35;100.00;100504.09;5009412;28;20506;-79
2021/11/19 07:26:53;;;;;;;52.00;8.45;;;;;;;12.30;100.00;100491.28;5006949;28;20693;-79
2021/11/19 07:29:18;;;;;;;51.33;8.45;;;;;;;12.14;100.00;100457.53;4988560;28;20034;-79
2021/11/19 07:31:44;;;;;;;66.25;9.90;;;;;;;12.40;100.00;100498.88;5005943;28;21631;-80
2021/11/19 07:34:09;;;;;;;69.75;11.13;;;;;;;12.39;100.00;100492.66;5004802;28;20038;-78
2021/11/19 07:36:35;;;;;;;70.45;10.52;;;;;;;12.42;100.00;100491.41;5006283;28;20045;-79
2021/11/19 07:39:03;;;;;;;63.33;9.25;;;;;;;12.41;100.00;100506.75;4984828;28;20079;-79
2021/11/19 07:41:28;;;;;;;54.13;8.80;;;;;;;12.43;100.00;100520.03;5004060;28;20180;-79
2021/11/19 07:43:54;;;;;;;60.95;9.55;;;;;;;12.48;100.00;100505.88;5007241;28;20030;-79
2021/11/19 07:46:24;;;;;;;57.10;9.10;;;;;;;12.47;100.00;100505.06;5004868;28;20045;-79
2021/11/19 07:48:52;;;;;;;62.67;10.65;;;;;;;12.51;100.00;100505.44;5004126;28;20652;-79
2021/11/19 07:51:21;;;;;;;58.67;9.80;;;;;;;12.55;100.00;100490.47;5008843;28;20024;-80
2021/11/19 07:53:47;;;;;;;57.85;9.93;;;;;;;12.44;100.00;100483.91;5008496;28;20038;-79
2021/11/19 07:56:15;;;;;;;56.28;8.60;;;;;;;12.37;100.00;100466.94;5008382;28;20029;-78
2021/11/19 07:58:42;;;;;;;67.63;9.10;;;;;;;12.52;100.00;100494.44;5004691;28;20732;-79
2021/11/19 08:01:10;;;;;;;62.75;10.60;;;;;;;12.55;100.00;100491.31;5005047;28;20061;-79
2021/11/19 08:03:35;;;;;;;69.50;10.20;;;;;;;12.56;100.00;100498.34;5005185;28;20074;-79
2021/11/19 08:06:04;;;;;;;56.28;10.05;;;;;;;12.57;100.00;100494.59;5009018;28;20698;-80
2021/11/19 08:08:32;;;;;;;70.43;11.02;;;;;;;12.56;100.00;100495.66;5007498;28;20049;-78
2021/11/19 08:10:58;;;;;;;68.70;10.52;;;;;;;12.51;100.00;100479.28;5010780;28;20451;-79
2021/11/19 08:13:24;;;;;;;75.15;11.38;;;;;;;12.51;100.00;100473.06;4997513;28;20088;-80
2021/11/19 08:15:50;;;;;;;69.90;11.82;;;;;;;12.35;100.00;100459.06;5014836;28;20029;-79
2021/11/19 08:18:25;;;;;;;56.13;10.10;;;;;;;12.54;100.00;100495.03;5014764;28;20014;-79
2021/11/19 08:20:54;;;;;;;34.17;6.30;;;;;;;12.43;100.00;100484.97;5016580;28;20360;-78
2021/11/19 08:23:33;;;;;;;58.67;8.98;;;;;;;12.46;100.00;100485.34;5016847;28;20359;-79
2021/11/19 08:25:59;;;;;;;59.97;8.75;;;;;;;12.52;100.00;100494.44;5016332;28;20710;-79
2021/11/19 08:28:26;;;;;;;69.75;10.50;;;;;;;12.50;100.00;100491.13;5018731;28;20038;-79
2021/11/19 08:30:53;;;;;;;62.33;10.93;;;;;;;12.50;100.00;100493.81;5017895;28;20375;-79
2021/11/19 08:33:19;;;;;;;64.72;9.88;;;;;;;12.53;100.00;100493.38;5016699;28;20348;-79
2021/11/19 08:35:45;;;;;;;47.53;7.70;;;;;;;12.40;100.00;100450.31;5014078;28;20026;-79
2021/11/19 08:38:20;;;;;;;59.90;10.30;;;;;;;12.58;100.00;100471.13;5017162;28;20372;-79
2021/11/19 08:40:46;;;;;;;;;;;;;;;12.53;100.00;100481.78;5018295;28;20484;-79
2021/11/19 08:43:22;;;;;;;58.28;9.43;;;;;;;12.58;100.00;100477.38;5021632;28;19909;-80
2021/11/19 08:45:48;;;;;;;54.30;9.82;;;;;;;12.37;100.00;100475.84;5017269;28;20048;-79
2021/11/19 08:48:15;;;;;;;59.95;9.90;;;;;;;12.11;100.00;100484.13;5016470;28;20088;-79
2021/11/19 08:50:42;;;;;;;56.08;9.50;;;;;;;12.33;100.00;100461.16;5016112;28;20037;-79
2021/11/19 08:53:11;;;;;;;54.13;9.10;;;;;;;12.38;100.00;100479.38;5016004;28;20529;-80
2021/11/19 08:55:44;;;;;;;48.75;9.18;;;;;;;12.25;100.00;100484.88;5000026;28;20033;-80
2021/11/19 08:58:28;;;;;;;49.72;8.30;;;;;;;12.25;100.00;100483.03;5017046;28;20536;-79
2021/11/19 09:00:56;;;;;;;52.40;8.50;;;;;;;12.30;100.00;100466.16;5015843;28;20053;-80
2021/11/19 09:03:25;;;;;;;52.00;8.57;;;;;;;12.50;100.00;100480.34;5013914;28;20540;-80
2021/11/19 09:05:51;;;;;;;46.88;9.05;;;;;;;12.37;100.00;100475.03;5013259;28;20050;-79
2021/11/19 09:08:18;;;;;;;47.65;8.70;;;;;;;12.32;100.00;100461.41;4996179;28;20096;-79
2021/11/19 09:10:45;;;;;;;45.95;8.15;;;;;;;12.34;100.00;100473.59;5015514;28;20042;-79
2021/11/19 09:13:11;;;;;;;46.47;8.90;;;;;;;12.34;100.00;100467.38;5016820;28;20026;-79
2021/11/19 09:15:37;;;;;;;51.42;8.80;;;;;;;12.23;100.00;100439.25;5018874;28;20477;-79
2021/11/19 09:18:27;;;;;;;40.83;6.13;;;;;;;12.48;100.00;100455.44;5016023;28;20096;-80
2021/11/19 09:20:58;;;;;;;52.97;9.80;;;;;;;12.58;100.00;100479.22;5016320;28;20116;-79
2021/11/19 09:23:27;;;;;;;36.78;6.30;;;;;;;12.56;100.00;100484.03;5016705;28;20067;-79
2021/11/19 09:25:56;;;;;;;43.47;6.65;;;;;;;12.61;100.00;100478.78;5015516;28;20104;-79
2021/11/19 09:28:24;;;;;;;46.25;8.07;;;;;;;12.70;100.00;100494.47;5013789;28;20029;-79
2021/11/19 09:30:54;;;;;;;39.95;6.93;;;;;;;12.77;100.00;100499.00;5013667;28;20083;-79
2021/11/19 09:33:21;;;;;;;38.47;6.82;;;;;;;12.73;100.00;100485.13;5013378;28;20642;-79
2021/11/19 09:35:47;;;;;;;36.22;6.82;;;;;;;12.80;100.00;100479.66;5019346;28;20041;-80
2021/11/19 09:38:14;;;;;;;48.85;8.63;;;;;;;12.90;100.00;100482.69;5018017;28;20025;-79
2021/11/19 09:40:43;;;;;;;50.83;9.07;;;;;;;12.73;100.00;100460.00;4995091;28;20092;-80
2021/11/19 09:43:17;;;;;;;39.58;6.85;;;;;;;12.82;100.00;100480.28;5010991;28;20033;-79
2021/11/19 09:46:01;;;;;;;53.70;9.00;;;;;;;12.77;100.00;100486.31;5017259;28;20029;-79
2021/11/19 09:49:24;;;;;;;52.50;8.95;;;;;;;12.80;100.00;100444.56;5015848;28;20096;-79
2021/11/19 09:52:32;;;;;;;44.75;7.45;;;;;;;12.89;100.00;100471.06;4930903;29;20027;-79
2021/11/19 09:55:20;;;;;;;48.63;8.48;;;;;;;12.79;100.00;100454.53;4923516;29;20035;-80
2021/11/19 09:58:22;;;;;;;55.88;8.63;;;;;;;12.75;100.00;100447.94;5011974;28;20471;-80
2021/11/19 10:01:26;;;;;;;43.35;7.45;;;;;;;12.58;100.00;100441.44;4995843;28;20041;-80
2021/11/19 10:04:16;;;;;;;43.65;7.55;;;;;;;12.60;100.00;100445.56;5014983;28;20049;-79
2021/11/19 10:07:04;;;;;;;53.80;8.50;;;;;;;12.30;100.00;100379.84;5017379;28;20042;-79
2021/11/19 10:09:45;;;;;;;43.83;7.53;;;;;;;12.48;100.00;100431.13;5015513;28;20064;-80
2021/11/19 10:12:19;;;;;;;37.80;6.60;;;;;;;12.58;100.00;100426.09;5032640;28;20030;-79
2021/11/19 10:15:12;;;;;;;49.40;8.13;;;;;;;12.53;100.00;100427.78;5014435;28;20452;-79
2021/11/19 10:18:16;;;;;;;37.70;6.72;;;;;;;12.42;100.00;100437.44;5013832;28;20325;-80
2021/11/19 10:20:45;;;;;;;48.20;8.15;;;;;;;12.40;100.00;100431.44;4983692;28;20076;-79
2021/11/19 10:23:42;;;;;;;46.92;7.85;;;;;;;12.45;100.00;100429.72;5014035;28;20029;-79
2021/11/19 10:26:21;;;;;;;44.03;7.60;;;;;;;12.47;100.00;100459.19;5015382;28;20029;-78
2021/11/19 10:28:53;;;;;;;38.38;6.38;;;;;;;12.36;100.00;100452.63;5010922;28;20069;-79
2021/11/19 10:31:23;;;;;;;46.30;7.20;;;;;;;12.42;100.00;100456.34;5015401;28;20018;-80
2021/11/19 10:34:16;;;;;;;48.15;7.55;;;;;;;12.42;100.00;100459.03;5013393;28;20022;-80
2021/11/19 10:36:53;;;;;;;43.00;7.55;;;;;;;12.38;100.00;100458.66;5017372;28;20064;-79
2021/11/19 10:39:52;;;;;;;36.30;5.95;;;;;;;12.31;100.00;100443.53;5012257;28;20026;-79
2021/11/19 10:42:51;;;;;;;46.00;7.38;;;;;;;12.40;100.00;100469.19;5000512;28;20034;-80
2021/11/19 10:45:19;;;;;;;35.08;6.22;;;;;;;12.36;100.00;100471.50;5015767;28;20025;-80
2021/11/19 10:48:04;;;;;;;51.55;7.65;;;;;;;12.46;100.00;100471.03;5014884;28;20022;-79
2021/11/19 10:51:03;;;;;;;45.43;6.20;;;;;;;12.45;100.00;100482.88;5011851;28;20022;-79
2021/11/19 10:53:59;;;;;;;40.45;6.05;;;;;;;12.50;100.00;100456.03;5011221;28;20072;-78
2021/11/19 10:56:46;;;;;;;43.33;7.40;;;;;;;12.51;100.00;100465.78;5010719;28;20033;-78
2021/11/19 10:59:59;;;;;;;42.22;7.05;;;;;;;12.50;100.00;100461.44;5012685;28;20034;-79
2021/11/19 11:02:37;;;;;;;41.47;6.75;;;;;;;12.14;100.00;100414.41;4934546;29;20023;-79
2021/11/19 11:05:30;;;;;;;46.30;7.30;;;;;;;12.38;100.00;100439.75;4954733;29;20078;-79
2021/11/19 11:08:11;;;;;;;37.97;5.90;;;;;;;12.41;100.00;100424.97;5001272;28;20105;-79
2021/11/19 11:10:44;;;;;;;39.72;6.28;;;;;;;12.40;100.00;100418.75;5015006;28;20113;-79
2021/11/19 11:13:21;;;;;;;39.55;6.88;;;;;;;12.39;100.00;100414.41;5012792;28;20030;-79
2021/11/19 11:16:03;;;;;;;40.92;6.78;;;;;;;12.42;100.00;100429.34;5013484;28;20109;-79
2021/11/19 11:18:33;;;;;;;41.03;6.78;;;;;;;12.31;100.00;100393.09;5013416;28;20037;-79
2021/11/19 11:21:06;;;;;;;37.63;6.50;;;;;;;12.48;100.00;100430.31;5013229;28;20080;-79
2021/11/19 11:23:58;;;;;;;37.15;6.80;;;;;;;12.55;100.00;100431.09;5009696;28;20387;-79
2021/11/19 11:26:57;;;;;;;38.50;6.53;;;;;;;12.59;100.00;100427.72;4980498;28;20042;-79
2021/11/19 11:29:40;;;;;;;22.08;4.63;;;;;;;12.60;100.00;100439.34;4973946;28;20105;-79